sensor_id;sensor_type;location;lat;lon;timestamp;P1;durP1;ratioP1;P2;durP2;ratioP2
72408;SDS011;60402;48.082;11.628;2022-12-18T00:02:04;35.92;;;10.90;;
72408;SDS011;60402;48.082;11.628;2022-12-18T00:04:30;25.90;;;10.38;;
72408;SDS011;60402;48.082;11.628;2022-12-18T00:06:55;32.40;;;10.77;;
72408;SDS011;60402;48.082;11.628;2022-12-18T00:09:24;29.77;;;10.98;;
72408;SDS011;60402;48.082;11.628;2022-12-18T00:11:49;27.08;;;10.45;;
72408;SDS011;60402;48.082;11.628;2022-12-18T00:14:15;37.38;;;12.10;;
72408;SDS011;60402;48.082;11.628;2022-12-18T00:16:42;25.17;;;10.32;;
72408;SDS011;60402;48.082;11.628;2022-12-18T00:19:13;28.95;;;10.90;;
72408;SDS011;60402;48.082;11.628;2022-12-18T00:21:47;29.67;;;11.70;;
72408;SDS011;60402;48.082;11.628;2022-12-18T00:24:15;32.10;;;11.38;;
72408;SDS011;60402;48.082;11.628;2022-12-18T00:26:40;31.42;;;11.82;;
72408;SDS011;60402;48.082;11.628;2022-12-18T00:29:10;30.98;;;10.10;;
72408;SDS011;60402;48.082;11.628;2022-12-18T00:31:40;29.50;;;9.15;;
72408;SDS011;60402;48.082;11.628;2022-12-18T00:34:08;30.35;;;10.80;;
72408;SDS011;60402;48.082;11.628;2022-12-18T00:36:36;32.28;;;12.05;;
72408;SDS011;60402;48.082;11.628;2022-12-18T00:39:03;33.92;;;11.73;;
72408;SDS011;60402;48.082;11.628;2022-12-18T00:41:31;35.58;;;13.93;;
72408;SDS011;60402;48.082;11.628;2022-12-18T00:44:16;29.38;;;9.40;;
72408;SDS011;60402;48.082;11.628;2022-12-18T00:46:42;37.60;;;10.75;;
72408;SDS011;60402;48.082;11.628;2022-12-18T00:49:12;38.67;;;12.52;;
72408;SDS011;60402;48.082;11.628;2022-12-18T00:51:39;36.10;;;11.05;;
72408;SDS011;60402;48.082;11.628;2022-12-18T00:54:05;31.23;;;9.93;;
72408;SDS011;60402;48.082;11.628;2022-12-18T00:56:30;32.78;;;10.00;;
72408;SDS011;60402;48.082;11.628;2022-12-18T00:58:59;44.00;;;14.55;;
72408;SDS011;60402;48.082;11.628;2022-12-18T01:01:27;38.70;;;12.27;;
72408;SDS011;60402;48.082;11.628;2022-12-18T01:03:52;29.20;;;11.93;;
72408;SDS011;60402;48.082;11.628;2022-12-18T01:06:18;35.78;;;12.05;;
72408;SDS011;60402;48.082;11.628;2022-12-18T01:08:44;42.10;;;12.85;;
72408;SDS011;60402;48.082;11.628;2022-12-18T01:11:10;41.42;;;12.07;;
72408;SDS011;60402;48.082;11.628;2022-12-18T01:13:41;37.88;;;13.50;;
72408;SDS011;60402;48.082;11.628;2022-12-18T01:16:07;36.22;;;13.60;;
72408;SDS011;60402;48.082;11.628;2022-12-18T01:18:34;37.88;;;12.52;;
72408;SDS011;60402;48.082;11.628;2022-12-18T01:20:59;34.92;;;11.88;;
72408;SDS011;60402;48.082;11.628;2022-12-18T01:23:28;33.03;;;11.20;;
72408;SDS011;60402;48.082;11.628;2022-12-18T01:25:53;31.33;;;11.65;;
72408;SDS011;60402;48.082;11.628;2022-12-18T01:28:19;32.17;;;10.50;;
72408;SDS011;60402;48.082;11.628;2022-12-18T01:30:44;28.67;;;10.93;;
72408;SDS011;60402;48.082;11.628;2022-12-18T01:33:09;33.00;;;10.30;;
72408;SDS011;60402;48.082;11.628;2022-12-18T01:35:41;37.55;;;12.35;;
72408;SDS011;60402;48.082;11.628;2022-12-18T01:38:07;24.27;;;7.65;;
72408;SDS011;60402;48.082;11.628;2022-12-18T01:40:33;31.67;;;10.95;;
72408;SDS011;60402;48.082;11.628;2022-12-18T01:42:58;35.40;;;11.35;;
72408;SDS011;60402;48.082;11.628;2022-12-18T01:45:25;33.10;;;10.95;;
72408;SDS011;60402;48.082;11.628;2022-12-18T01:52:56;37.07;;;10.53;;
72408;SDS011;60402;48.082;11.628;2022-12-18T01:55:25;28.38;;;10.32;;
72408;SDS011;60402;48.082;11.628;2022-12-18T01:57:54;31.92;;;10.50;;
72408;SDS011;60402;48.082;11.628;2022-12-18T02:00:21;40.67;;;13.45;;
72408;SDS011;60402;48.082;11.628;2022-12-18T02:02:48;32.33;;;11.38;;
72408;SDS011;60402;48.082;11.628;2022-12-18T02:05:18;33.72;;;10.63;;
72408;SDS011;60402;48.082;11.628;2022-12-18T02:10:41;21.85;;;9.80;;
72408;SDS011;60402;48.082;11.628;2022-12-18T02:13:32;33.47;;;12.30;;
72408;SDS011;60402;48.082;11.628;2022-12-18T02:16:18;25.55;;;8.95;;
72408;SDS011;60402;48.082;11.628;2022-12-18T02:19:01;40.53;;;12.35;;
72408;SDS011;60402;48.082;11.628;2022-12-18T02:21:46;37.65;;;12.43;;
72408;SDS011;60402;48.082;11.628;2022-12-18T02:24:29;37.25;;;10.13;;
72408;SDS011;60402;48.082;11.628;2022-12-18T02:27:04;40.10;;;12.77;;
72408;SDS011;60402;48.082;11.628;2022-12-18T02:29:39;38.95;;;12.90;;
72408;SDS011;60402;48.082;11.628;2022-12-18T02:32:14;31.38;;;11.05;;
72408;SDS011;60402;48.082;11.628;2022-12-18T02:34:47;44.38;;;12.48;;
72408;SDS011;60402;48.082;11.628;2022-12-18T02:37:16;34.80;;;11.10;;
72408;SDS011;60402;48.082;11.628;2022-12-18T02:39:43;41.85;;;13.70;;
72408;SDS011;60402;48.082;11.628;2022-12-18T02:42:12;36.97;;;11.77;;
72408;SDS011;60402;48.082;11.628;2022-12-18T02:44:42;38.50;;;12.52;;
72408;SDS011;60402;48.082;11.628;2022-12-18T02:47:09;37.67;;;11.15;;
72408;SDS011;60402;48.082;11.628;2022-12-18T02:52:49;31.95;;;11.50;;
72408;SDS011;60402;48.082;11.628;2022-12-18T02:55:43;43.80;;;12.15;;
72408;SDS011;60402;48.082;11.628;2022-12-18T02:58:38;46.30;;;11.80;;
72408;SDS011;60402;48.082;11.628;2022-12-18T03:01:13;34.60;;;10.43;;
72408;SDS011;60402;48.082;11.628;2022-12-18T03:03:47;36.78;;;11.65;;
72408;SDS011;60402;48.082;11.628;2022-12-18T03:06:21;33.92;;;11.98;;
72408;SDS011;60402;48.082;11.628;2022-12-18T03:08:58;36.10;;;10.98;;
72408;SDS011;60402;48.082;11.628;2022-12-18T03:11:28;38.30;;;11.38;;
72408;SDS011;60402;48.082;11.628;2022-12-18T03:14:20;27.38;;;10.35;;
72408;SDS011;60402;48.082;11.628;2022-12-18T03:16:49;37.47;;;12.00;;
72408;SDS011;60402;48.082;11.628;2022-12-18T03:19:18;45.42;;;14.55;;
72408;SDS011;60402;48.082;11.628;2022-12-18T03:21:49;45.70;;;14.35;;
72408;SDS011;60402;48.082;11.628;2022-12-18T03:24:19;39.17;;;13.18;;
72408;SDS011;60402;48.082;11.628;2022-12-18T03:26:47;92.15;;;25.38;;
72408;SDS011;60402;48.082;11.628;2022-12-18T03:29:27;81.80;;;25.50;;
72408;SDS011;60402;48.082;11.628;2022-12-18T03:32:08;53.05;;;18.98;;
72408;SDS011;60402;48.082;11.628;2022-12-18T03:34:37;46.83;;;16.95;;
72408;SDS011;60402;48.082;11.628;2022-12-18T03:37:06;40.92;;;13.75;;
72408;SDS011;60402;48.082;11.628;2022-12-18T03:39:32;46.15;;;15.05;;
72408;SDS011;60402;48.082;11.628;2022-12-18T03:42:09;47.75;;;16.60;;
72408;SDS011;60402;48.082;11.628;2022-12-18T03:44:45;35.00;;;11.50;;
72408;SDS011;60402;48.082;11.628;2022-12-18T03:50:26;38.72;;;12.60;;
72408;SDS011;60402;48.082;11.628;2022-12-18T03:52:59;43.53;;;14.93;;
72408;SDS011;60402;48.082;11.628;2022-12-18T03:55:49;28.20;;;9.95;;
72408;SDS011;60402;48.082;11.628;2022-12-18T03:58:20;36.80;;;12.48;;
72408;SDS011;60402;48.082;11.628;2022-12-18T04:00:49;39.95;;;13.05;;
72408;SDS011;60402;48.082;11.628;2022-12-18T04:03:25;38.15;;;11.48;;
72408;SDS011;60402;48.082;11.628;2022-12-18T04:05:54;38.67;;;13.23;;
72408;SDS011;60402;48.082;11.628;2022-12-18T04:08:20;39.20;;;13.18;;
72408;SDS011;60402;48.082;11.628;2022-12-18T04:10:47;40.05;;;12.38;;
72408;SDS011;60402;48.082;11.628;2022-12-18T04:13:13;32.58;;;10.88;;
72408;SDS011;60402;48.082;11.628;2022-12-18T04:15:47;34.42;;;11.45;;
72408;SDS011;60402;48.082;11.628;2022-12-18T04:18:12;31.13;;;10.25;;
72408;SDS011;60402;48.082;11.628;2022-12-18T04:20:37;39.43;;;11.07;;
72408;SDS011;60402;48.082;11.628;2022-12-18T04:23:03;27.03;;;9.73;;
72408;SDS011;60402;48.082;11.628;2022-12-18T04:25:28;33.97;;;11.13;;
72408;SDS011;60402;48.082;11.628;2022-12-18T04:27:53;34.17;;;10.90;;
72408;SDS011;60402;48.082;11.628;2022-12-18T04:30:18;30.98;;;9.90;;
72408;SDS011;60402;48.082;11.628;2022-12-18T04:32:44;32.77;;;11.83;;
72408;SDS011;60402;48.082;11.628;2022-12-18T04:35:09;28.23;;;11.05;;
72408;SDS011;60402;48.082;11.628;2022-12-18T04:37:36;29.13;;;9.98;;
72408;SDS011;60402;48.082;11.628;2022-12-18T04:40:01;33.47;;;10.83;;
72408;SDS011;60402;48.082;11.628;2022-12-18T04:42:26;31.87;;;11.23;;
72408;SDS011;60402;48.082;11.628;2022-12-18T04:44:51;31.30;;;11.13;;
72408;SDS011;60402;48.082;11.628;2022-12-18T04:47:17;29.90;;;10.20;;
72408;SDS011;60402;48.082;11.628;2022-12-18T04:49:42;30.97;;;11.03;;
72408;SDS011;60402;48.082;11.628;2022-12-18T04:52:07;27.80;;;10.27;;
72408;SDS011;60402;48.082;11.628;2022-12-18T04:54:33;29.20;;;10.43;;
72408;SDS011;60402;48.082;11.628;2022-12-18T04:56:58;30.07;;;10.33;;
72408;SDS011;60402;48.082;11.628;2022-12-18T04:59:23;29.77;;;9.90;;
72408;SDS011;60402;48.082;11.628;2022-12-18T05:01:48;29.10;;;9.80;;
72408;SDS011;60402;48.082;11.628;2022-12-18T05:04:14;21.35;;;8.68;;
72408;SDS011;60402;48.082;11.628;2022-12-18T05:06:39;32.67;;;10.98;;
72408;SDS011;60402;48.082;11.628;2022-12-18T05:09:04;29.27;;;10.90;;
72408;SDS011;60402;48.082;11.628;2022-12-18T05:11:30;27.15;;;9.57;;
72408;SDS011;60402;48.082;11.628;2022-12-18T05:13:55;35.70;;;9.63;;
72408;SDS011;60402;48.082;11.628;2022-12-18T05:16:20;34.90;;;10.32;;
72408;SDS011;60402;48.082;11.628;2022-12-18T05:18:46;29.92;;;9.98;;
72408;SDS011;60402;48.082;11.628;2022-12-18T05:21:11;35.30;;;10.27;;
72408;SDS011;60402;48.082;11.628;2022-12-18T05:23:36;24.85;;;9.15;;
72408;SDS011;60402;48.082;11.628;2022-12-18T05:26:03;31.48;;;9.63;;
72408;SDS011;60402;48.082;11.628;2022-12-18T05:28:30;27.70;;;9.63;;
72408;SDS011;60402;48.082;11.628;2022-12-18T05:30:58;26.77;;;8.70;;
72408;SDS011;60402;48.082;11.628;2022-12-18T05:33:26;27.73;;;9.57;;
72408;SDS011;60402;48.082;11.628;2022-12-18T05:35:54;28.50;;;9.95;;
72408;SDS011;60402;48.082;11.628;2022-12-18T05:38:21;21.23;;;8.25;;
72408;SDS011;60402;48.082;11.628;2022-12-18T05:40:48;30.23;;;10.00;;
72408;SDS011;60402;48.082;11.628;2022-12-18T05:43:14;31.30;;;10.52;;
72408;SDS011;60402;48.082;11.628;2022-12-18T05:45:40;27.48;;;9.43;;
72408;SDS011;60402;48.082;11.628;2022-12-18T05:48:06;32.17;;;10.80;;
72408;SDS011;60402;48.082;11.628;2022-12-18T05:50:40;33.42;;;10.27;;
72408;SDS011;60402;48.082;11.628;2022-12-18T05:53:06;29.15;;;9.65;;
72408;SDS011;60402;48.082;11.628;2022-12-18T05:55:36;30.80;;;10.43;;
72408;SDS011;60402;48.082;11.628;2022-12-18T05:58:02;24.45;;;8.93;;
72408;SDS011;60402;48.082;11.628;2022-12-18T06:00:30;29.50;;;10.10;;
72408;SDS011;60402;48.082;11.628;2022-12-18T06:02:57;30.08;;;8.98;;
72408;SDS011;60402;48.082;11.628;2022-12-18T06:05:22;23.55;;;9.40;;
72408;SDS011;60402;48.082;11.628;2022-12-18T06:07:48;28.67;;;8.40;;
72408;SDS011;60402;48.082;11.628;2022-12-18T06:10:13;27.30;;;8.45;;
72408;SDS011;60402;48.082;11.628;2022-12-18T06:12:38;28.73;;;10.00;;
72408;SDS011;60402;48.082;11.628;2022-12-18T06:15:04;24.92;;;9.13;;
72408;SDS011;60402;48.082;11.628;2022-12-18T06:17:30;29.67;;;8.30;;
72408;SDS011;60402;48.082;11.628;2022-12-18T06:19:57;25.42;;;9.80;;
72408;SDS011;60402;48.082;11.628;2022-12-18T06:22:22;24.35;;;8.55;;
72408;SDS011;60402;48.082;11.628;2022-12-18T06:24:48;26.15;;;9.00;;
72408;SDS011;60402;48.082;11.628;2022-12-18T06:27:14;26.98;;;8.68;;
72408;SDS011;60402;48.082;11.628;2022-12-18T06:29:39;24.45;;;9.13;;
72408;SDS011;60402;48.082;11.628;2022-12-18T06:32:05;23.08;;;8.77;;
72408;SDS011;60402;48.082;11.628;2022-12-18T06:34:30;30.13;;;9.75;;
72408;SDS011;60402;48.082;11.628;2022-12-18T06:36:57;27.77;;;8.88;;
72408;SDS011;60402;48.082;11.628;2022-12-18T06:39:22;30.05;;;9.93;;
72408;SDS011;60402;48.082;11.628;2022-12-18T06:41:47;24.90;;;8.70;;
72408;SDS011;60402;48.082;11.628;2022-12-18T06:44:13;30.13;;;9.77;;
72408;SDS011;60402;48.082;11.628;2022-12-18T06:46:38;29.95;;;9.68;;
72408;SDS011;60402;48.082;11.628;2022-12-18T06:49:03;27.23;;;9.20;;
72408;SDS011;60402;48.082;11.628;2022-12-18T06:51:29;27.10;;;9.55;;
72408;SDS011;60402;48.082;11.628;2022-12-18T06:53:54;27.88;;;8.70;;
72408;SDS011;60402;48.082;11.628;2022-12-18T06:56:19;27.77;;;9.93;;
72408;SDS011;60402;48.082;11.628;2022-12-18T06:58:45;29.65;;;9.23;;
72408;SDS011;60402;48.082;11.628;2022-12-18T07:01:11;25.95;;;8.02;;
72408;SDS011;60402;48.082;11.628;2022-12-18T07:03:37;27.02;;;8.40;;
72408;SDS011;60402;48.082;11.628;2022-12-18T07:06:04;27.13;;;9.50;;
72408;SDS011;60402;48.082;11.628;2022-12-18T07:08:30;30.95;;;10.82;;
72408;SDS011;60402;48.082;11.628;2022-12-18T07:10:56;27.15;;;10.23;;
72408;SDS011;60402;48.082;11.628;2022-12-18T07:13:21;31.50;;;10.18;;
72408;SDS011;60402;48.082;11.628;2022-12-18T07:15:47;37.15;;;10.40;;
72408;SDS011;60402;48.082;11.628;2022-12-18T07:18:12;27.73;;;9.73;;
72408;SDS011;60402;48.082;11.628;2022-12-18T07:20:37;25.53;;;8.90;;
72408;SDS011;60402;48.082;11.628;2022-12-18T07:23:03;27.33;;;9.17;;
72408;SDS011;60402;48.082;11.628;2022-12-18T07:25:30;25.20;;;9.55;;
72408;SDS011;60402;48.082;11.628;2022-12-18T07:27:55;24.55;;;8.63;;
72408;SDS011;60402;48.082;11.628;2022-12-18T07:30:20;30.77;;;10.13;;
72408;SDS011;60402;48.082;11.628;2022-12-18T07:32:46;28.07;;;11.20;;
72408;SDS011;60402;48.082;11.628;2022-12-18T07:35:11;29.43;;;10.07;;
72408;SDS011;60402;48.082;11.628;2022-12-18T07:37:36;29.52;;;9.05;;
72408;SDS011;60402;48.082;11.628;2022-12-18T07:40:01;34.17;;;11.68;;
72408;SDS011;60402;48.082;11.628;2022-12-18T07:42:27;34.67;;;11.85;;
72408;SDS011;60402;48.082;11.628;2022-12-18T07:44:55;42.53;;;15.70;;
72408;SDS011;60402;48.082;11.628;2022-12-18T07:47:21;40.33;;;14.23;;
72408;SDS011;60402;48.082;11.628;2022-12-18T07:49:46;41.55;;;12.85;;
72408;SDS011;60402;48.082;11.628;2022-12-18T07:52:12;59.67;;;23.60;;
72408;SDS011;60402;48.082;11.628;2022-12-18T07:54:37;26.42;;;10.30;;
72408;SDS011;60402;48.082;11.628;2022-12-18T07:57:03;26.70;;;10.18;;
72408;SDS011;60402;48.082;11.628;2022-12-18T07:59:28;28.52;;;10.13;;
72408;SDS011;60402;48.082;11.628;2022-12-18T08:01:54;26.23;;;9.45;;
72408;SDS011;60402;48.082;11.628;2022-12-18T08:04:19;27.73;;;10.77;;
72408;SDS011;60402;48.082;11.628;2022-12-18T08:06:44;22.03;;;8.70;;
72408;SDS011;60402;48.082;11.628;2022-12-18T08:09:10;27.23;;;9.15;;
72408;SDS011;60402;48.082;11.628;2022-12-18T08:11:35;24.80;;;8.70;;
72408;SDS011;60402;48.082;11.628;2022-12-18T08:14:00;28.23;;;9.88;;
72408;SDS011;60402;48.082;11.628;2022-12-18T08:16:26;35.80;;;11.03;;
72408;SDS011;60402;48.082;11.628;2022-12-18T08:18:52;21.98;;;7.80;;
72408;SDS011;60402;48.082;11.628;2022-12-18T08:21:19;27.83;;;9.00;;
72408;SDS011;60402;48.082;11.628;2022-12-18T08:23:48;23.98;;;8.60;;
72408;SDS011;60402;48.082;11.628;2022-12-18T08:26:13;20.30;;;7.38;;
72408;SDS011;60402;48.082;11.628;2022-12-18T08:28:39;19.95;;;7.28;;
72408;SDS011;60402;48.082;11.628;2022-12-18T08:31:05;25.98;;;9.48;;
72408;SDS011;60402;48.082;11.628;2022-12-18T08:33:32;28.88;;;9.50;;
72408;SDS011;60402;48.082;11.628;2022-12-18T08:35:58;30.30;;;8.85;;
72408;SDS011;60402;48.082;11.628;2022-12-18T08:38:24;28.50;;;8.50;;
72408;SDS011;60402;48.082;11.628;2022-12-18T08:40:53;31.30;;;9.75;;
72408;SDS011;60402;48.082;11.628;2022-12-18T08:43:23;20.95;;;8.38;;
72408;SDS011;60402;48.082;11.628;2022-12-18T08:46:07;23.95;;;8.90;;
72408;SDS011;60402;48.082;11.628;2022-12-18T08:48:32;24.00;;;8.20;;
72408;SDS011;60402;48.082;11.628;2022-12-18T08:50:58;26.35;;;9.75;;
72408;SDS011;60402;48.082;11.628;2022-12-18T08:53:24;23.25;;;8.27;;
72408;SDS011;60402;48.082;11.628;2022-12-18T08:55:50;22.60;;;6.88;;
72408;SDS011;60402;48.082;11.628;2022-12-18T08:58:16;22.42;;;8.63;;
72408;SDS011;60402;48.082;11.628;2022-12-18T09:00:41;25.40;;;8.80;;
72408;SDS011;60402;48.082;11.628;2022-12-18T09:03:11;24.03;;;8.87;;
72408;SDS011;60402;48.082;11.628;2022-12-18T09:05:45;19.38;;;8.40;;
72408;SDS011;60402;48.082;11.628;2022-12-18T09:08:11;23.67;;;8.38;;
72408;SDS011;60402;48.082;11.628;2022-12-18T09:10:44;25.20;;;8.52;;
72408;SDS011;60402;48.082;11.628;2022-12-18T09:13:10;25.73;;;9.48;;
72408;SDS011;60402;48.082;11.628;2022-12-18T09:15:41;21.55;;;8.40;;
72408;SDS011;60402;48.082;11.628;2022-12-18T09:18:07;22.15;;;6.93;;
72408;SDS011;60402;48.082;11.628;2022-12-18T09:20:33;25.13;;;8.10;;
72408;SDS011;60402;48.082;11.628;2022-12-18T09:22:59;23.42;;;7.28;;
72408;SDS011;60402;48.082;11.628;2022-12-18T09:25:24;26.38;;;8.95;;
72408;SDS011;60402;48.082;11.628;2022-12-18T09:27:49;27.48;;;8.77;;
72408;SDS011;60402;48.082;11.628;2022-12-18T09:30:15;28.87;;;8.10;;
72408;SDS011;60402;48.082;11.628;2022-12-18T09:32:40;22.35;;;8.65;;
72408;SDS011;60402;48.082;11.628;2022-12-18T09:35:05;19.17;;;8.07;;
72408;SDS011;60402;48.082;11.628;2022-12-18T09:37:31;25.25;;;7.60;;
72408;SDS011;60402;48.082;11.628;2022-12-18T09:39:56;24.83;;;8.00;;
72408;SDS011;60402;48.082;11.628;2022-12-18T09:42:21;26.57;;;8.53;;
72408;SDS011;60402;48.082;11.628;2022-12-18T09:44:52;24.05;;;8.38;;
72408;SDS011;60402;48.082;11.628;2022-12-18T09:50:01;17.85;;;7.03;;
72408;SDS011;60402;48.082;11.628;2022-12-18T09:52:33;20.60;;;7.93;;
72408;SDS011;60402;48.082;11.628;2022-12-18T09:55:11;21.00;;;7.88;;
72408;SDS011;60402;48.082;11.628;2022-12-18T09:57:47;29.60;;;9.18;;
72408;SDS011;60402;48.082;11.628;2022-12-18T10:00:18;26.65;;;8.30;;
72408;SDS011;60402;48.082;11.628;2022-12-18T10:02:45;25.90;;;8.20;;
72408;SDS011;60402;48.082;11.628;2022-12-18T10:05:13;21.33;;;6.35;;
72408;SDS011;60402;48.082;11.628;2022-12-18T10:13:15;21.40;;;7.78;;
72408;SDS011;60402;48.082;11.628;2022-12-18T10:16:03;20.10;;;7.03;;
72408;SDS011;60402;48.082;11.628;2022-12-18T10:21:36;21.75;;;7.50;;
72408;SDS011;60402;48.082;11.628;2022-12-18T10:26:59;19.02;;;7.25;;
72408;SDS011;60402;48.082;11.628;2022-12-18T10:29:34;20.40;;;8.30;;
72408;SDS011;60402;48.082;11.628;2022-12-18T10:32:00;21.65;;;7.57;;
72408;SDS011;60402;48.082;11.628;2022-12-18T10:34:25;21.15;;;8.23;;
72408;SDS011;60402;48.082;11.628;2022-12-18T10:36:50;22.88;;;7.97;;
72408;SDS011;60402;48.082;11.628;2022-12-18T10:39:23;23.40;;;7.32;;
72408;SDS011;60402;48.082;11.628;2022-12-18T10:41:51;17.85;;;7.57;;
72408;SDS011;60402;48.082;11.628;2022-12-18T10:44:23;20.65;;;7.05;;
72408;SDS011;60402;48.082;11.628;2022-12-18T10:46:53;20.10;;;7.95;;
72408;SDS011;60402;48.082;11.628;2022-12-18T10:49:26;20.80;;;7.97;;
72408;SDS011;60402;48.082;11.628;2022-12-18T10:52:07;17.23;;;6.63;;
72408;SDS011;60402;48.082;11.628;2022-12-18T10:54:45;22.75;;;6.72;;
72408;SDS011;60402;48.082;11.628;2022-12-18T10:57:16;14.93;;;6.32;;
72408;SDS011;60402;48.082;11.628;2022-12-18T11:00:22;23.38;;;8.32;;
72408;SDS011;60402;48.082;11.628;2022-12-18T11:02:52;24.13;;;7.20;;
72408;SDS011;60402;48.082;11.628;2022-12-18T11:05:34;19.20;;;6.85;;
72408;SDS011;60402;48.082;11.628;2022-12-18T11:08:01;22.13;;;8.07;;
72408;SDS011;60402;48.082;11.628;2022-12-18T11:10:30;22.23;;;8.32;;
72408;SDS011;60402;48.082;11.628;2022-12-18T11:13:17;19.65;;;7.93;;
72408;SDS011;60402;48.082;11.628;2022-12-18T11:15:45;21.52;;;7.38;;
72408;SDS011;60402;48.082;11.628;2022-12-18T11:18:22;19.38;;;7.03;;
72408;SDS011;60402;48.082;11.628;2022-12-18T11:20:56;21.98;;;7.82;;
72408;SDS011;60402;48.082;11.628;2022-12-18T11:23:23;20.10;;;6.72;;
72408;SDS011;60402;48.082;11.628;2022-12-18T11:25:57;21.85;;;8.63;;
72408;SDS011;60402;48.082;11.628;2022-12-18T11:28:26;24.80;;;7.70;;
72408;SDS011;60402;48.082;11.628;2022-12-18T11:33:39;18.55;;;7.03;;
72408;SDS011;60402;48.082;11.628;2022-12-18T11:36:09;17.38;;;7.15;;
72408;SDS011;60402;48.082;11.628;2022-12-18T11:38:37;20.23;;;7.10;;
72408;SDS011;60402;48.082;11.628;2022-12-18T11:44:15;18.88;;;6.30;;
72408;SDS011;60402;48.082;11.628;2022-12-18T11:46:51;20.73;;;8.07;;
72408;SDS011;60402;48.082;11.628;2022-12-18T11:49:34;24.65;;;7.80;;
72408;SDS011;60402;48.082;11.628;2022-12-18T11:52:04;18.45;;;7.53;;
72408;SDS011;60402;48.082;11.628;2022-12-18T11:54:34;17.13;;;6.22;;
72408;SDS011;60402;48.082;11.628;2022-12-18T12:25:02;15.02;;;7.00;;
72408;SDS011;60402;48.082;11.628;2022-12-18T12:28:14;18.30;;;6.80;;
72408;SDS011;60402;48.082;11.628;2022-12-18T12:30:43;22.63;;;7.80;;
72408;SDS011;60402;48.082;11.628;2022-12-18T12:33:19;20.10;;;8.48;;
72408;SDS011;60402;48.082;11.628;2022-12-18T12:36:14;21.80;;;7.70;;
72408;SDS011;60402;48.082;11.628;2022-12-18T12:38:57;22.70;;;7.55;;
72408;SDS011;60402;48.082;11.628;2022-12-18T12:41:27;16.42;;;5.80;;
72408;SDS011;60402;48.082;11.628;2022-12-18T12:44:49;11.27;;;4.53;;
72408;SDS011;60402;48.082;11.628;2022-12-18T12:47:20;22.00;;;7.68;;
72408;SDS011;60402;48.082;11.628;2022-12-18T12:49:50;20.08;;;8.00;;
72408;SDS011;60402;48.082;11.628;2022-12-18T12:52:30;18.02;;;7.72;;
72408;SDS011;60402;48.082;11.628;2022-12-18T12:55:00;23.70;;;7.82;;
72408;SDS011;60402;48.082;11.628;2022-12-18T12:57:36;15.02;;;6.22;;
72408;SDS011;60402;48.082;11.628;2022-12-18T13:02:47;18.10;;;6.97;;
72408;SDS011;60402;48.082;11.628;2022-12-18T13:08:25;21.30;;;7.20;;
72408;SDS011;60402;48.082;11.628;2022-12-18T13:10:56;31.35;;;8.70;;
72408;SDS011;60402;48.082;11.628;2022-12-18T13:13:52;15.82;;;6.40;;
72408;SDS011;60402;48.082;11.628;2022-12-18T13:16:21;22.50;;;7.72;;
72408;SDS011;60402;48.082;11.628;2022-12-18T13:18:51;25.20;;;8.38;;
72408;SDS011;60402;48.082;11.628;2022-12-18T13:23:53;24.85;;;6.82;;
72408;SDS011;60402;48.082;11.628;2022-12-18T13:36:41;21.83;;;7.57;;
72408;SDS011;60402;48.082;11.628;2022-12-18T13:41:48;24.02;;;8.52;;
72408;SDS011;60402;48.082;11.628;2022-12-18T13:46:50;18.38;;;6.97;;
72408;SDS011;60402;48.082;11.628;2022-12-18T13:49:21;25.10;;;8.68;;
72408;SDS011;60402;48.082;11.628;2022-12-18T13:51:55;23.73;;;7.80;;
72408;SDS011;60402;48.082;11.628;2022-12-18T13:54:37;16.95;;;6.18;;
72408;SDS011;60402;48.082;11.628;2022-12-18T13:57:05;16.20;;;5.57;;
72408;SDS011;60402;48.082;11.628;2022-12-18T13:59:51;20.30;;;7.55;;
72408;SDS011;60402;48.082;11.628;2022-12-18T14:02:17;26.60;;;9.65;;
72408;SDS011;60402;48.082;11.628;2022-12-18T14:04:47;22.95;;;6.78;;
72408;SDS011;60402;48.082;11.628;2022-12-18T14:07:14;27.08;;;7.82;;
72408;SDS011;60402;48.082;11.628;2022-12-18T14:09:43;19.98;;;7.60;;
72408;SDS011;60402;48.082;11.628;2022-12-18T14:12:14;19.88;;;7.25;;
72408;SDS011;60402;48.082;11.628;2022-12-18T14:15:00;19.45;;;7.80;;
72408;SDS011;60402;48.082;11.628;2022-12-18T14:17:26;23.30;;;8.32;;
72408;SDS011;60402;48.082;11.628;2022-12-18T14:19:52;23.20;;;8.65;;
72408;SDS011;60402;48.082;11.628;2022-12-18T14:22:18;17.52;;;7.15;;
72408;SDS011;60402;48.082;11.628;2022-12-18T14:24:46;27.55;;;8.23;;
72408;SDS011;60402;48.082;11.628;2022-12-18T14:27:24;18.52;;;7.15;;
72408;SDS011;60402;48.082;11.628;2022-12-18T14:29:50;20.77;;;8.27;;
72408;SDS011;60402;48.082;11.628;2022-12-18T14:32:16;24.80;;;9.45;;
72408;SDS011;60402;48.082;11.628;2022-12-18T14:34:51;25.27;;;8.90;;
72408;SDS011;60402;48.082;11.628;2022-12-18T14:37:23;20.00;;;7.28;;
72408;SDS011;60402;48.082;11.628;2022-12-18T14:39:59;24.13;;;8.48;;
72408;SDS011;60402;48.082;11.628;2022-12-18T14:42:27;20.10;;;7.82;;
72408;SDS011;60402;48.082;11.628;2022-12-18T14:47:57;21.63;;;6.90;;
72408;SDS011;60402;48.082;11.628;2022-12-18T14:50:23;26.25;;;9.43;;
72408;SDS011;60402;48.082;11.628;2022-12-18T14:52:48;24.08;;;8.68;;
72408;SDS011;60402;48.082;11.628;2022-12-18T14:55:15;22.15;;;8.32;;
72408;SDS011;60402;48.082;11.628;2022-12-18T14:57:45;22.30;;;8.77;;
72408;SDS011;60402;48.082;11.628;2022-12-18T15:00:15;32.05;;;8.93;;
72408;SDS011;60402;48.082;11.628;2022-12-18T15:02:43;22.73;;;9.43;;
72408;SDS011;60402;48.082;11.628;2022-12-18T15:07:44;23.30;;;8.43;;
72408;SDS011;60402;48.082;11.628;2022-12-18T15:10:24;20.90;;;7.90;;
72408;SDS011;60402;48.082;11.628;2022-12-18T15:23:17;18.45;;;8.30;;
72408;SDS011;60402;48.082;11.628;2022-12-18T15:25:48;22.02;;;7.68;;
72408;SDS011;60402;48.082;11.628;2022-12-18T15:28:22;22.20;;;8.70;;
72408;SDS011;60402;48.082;11.628;2022-12-18T15:31:34;23.30;;;8.93;;
72408;SDS011;60402;48.082;11.628;2022-12-18T15:33:40;26.13;;;8.40;;
72408;SDS011;60402;48.082;11.628;2022-12-18T15:36:17;24.25;;;9.57;;
72408;SDS011;60402;48.082;11.628;2022-12-18T15:38:46;28.38;;;10.82;;
72408;SDS011;60402;48.082;11.628;2022-12-18T15:41:13;24.77;;;8.98;;
72408;SDS011;60402;48.082;11.628;2022-12-18T15:43:40;21.98;;;7.38;;
72408;SDS011;60402;48.082;11.628;2022-12-18T15:46:07;29.02;;;9.93;;
72408;SDS011;60402;48.082;11.628;2022-12-18T15:48:40;29.98;;;11.13;;
72408;SDS011;60402;48.082;11.628;2022-12-18T15:51:11;25.80;;;8.85;;
72408;SDS011;60402;48.082;11.628;2022-12-18T15:53:43;31.42;;;12.32;;
72408;SDS011;60402;48.082;11.628;2022-12-18T15:56:10;30.33;;;10.32;;
72408;SDS011;60402;48.082;11.628;2022-12-18T15:58:54;33.55;;;11.43;;
72408;SDS011;60402;48.082;11.628;2022-12-18T16:01:21;22.63;;;8.82;;
72408;SDS011;60402;48.082;11.628;2022-12-18T16:03:48;25.40;;;10.25;;
72408;SDS011;60402;48.082;11.628;2022-12-18T16:06:13;26.60;;;9.17;;
72408;SDS011;60402;48.082;11.628;2022-12-18T16:08:39;29.35;;;10.27;;
72408;SDS011;60402;48.082;11.628;2022-12-18T16:11:04;29.25;;;11.00;;
72408;SDS011;60402;48.082;11.628;2022-12-18T16:13:30;30.08;;;11.60;;